sensor_id;sensor_type;location;lat;lon;timestamp;temperature;humidity
2867;DHT22;1441;48.886;8.728;2023-01-26T00:01:35;1.60;99.90
2867;DHT22;1441;48.886;8.728;2023-01-26T00:04:01;1.70;99.90
2867;DHT22;1441;48.886;8.728;2023-01-26T00:06:27;1.70;99.90
2867;DHT22;1441;48.886;8.728;2023-01-26T00:08:54;1.60;99.90
2867;DHT22;1441;48.886;8.728;2023-01-26T00:11:21;1.70;99.90
2867;DHT22;1441;48.886;8.728;2023-01-26T00:13:49;1.60;99.90
2867;DHT22;1441;48.886;8.728;2023-01-26T00:16:15;1.60;99.90
2867;DHT22;1441;48.886;8.728;2023-01-26T00:18:41;1.70;99.90
2867;DHT22;1441;48.886;8.728;2023-01-26T00:21:13;1.70;99.90
2867;DHT22;1441;48.886;8.728;2023-01-26T00:23:40;1.80;99.90
2867;DHT22;1441;48.886;8.728;2023-01-26T00:26:07;1.70;99.90
2867;DHT22;1441;48.886;8.728;2023-01-26T00:28:33;1.50;99.90
2867;DHT22;1441;48.886;8.728;2023-01-26T00:31:22;1.40;99.90
2867;DHT22;1441;48.886;8.728;2023-01-26T00:33:48;1.30;99.90
2867;DHT22;1441;48.886;8.728;2023-01-26T00:36:14;1.20;99.90
2867;DHT22;1441;48.886;8.728;2023-01-26T00:38:40;1.20;99.90
2867;DHT22;1441;48.886;8.728;2023-01-26T00:41:06;1.20;99.90
2867;DHT22;1441;48.886;8.728;2023-01-26T00:43:32;1.20;99.90
2867;DHT22;1441;48.886;8.728;2023-01-26T00:45:57;1.20;99.90
2867;DHT22;1441;48.886;8.728;2023-01-26T00:48:23;1.40;99.90
2867;DHT22;1441;48.886;8.728;2023-01-26T00:50:52;1.30;99.90
2867;DHT22;1441;48.886;8.728;2023-01-26T00:53:18;1.50;99.90
2867;DHT22;1441;48.886;8.728;2023-01-26T00:55:43;1.40;99.90
2867;DHT22;1441;48.886;8.728;2023-01-26T00:58:09;1.20;99.90
2867;DHT22;1441;48.886;8.728;2023-01-26T01:00:37;1.20;99.90
2867;DHT22;1441;48.886;8.728;2023-01-26T01:03:04;1.30;99.90
2867;DHT22;1441;48.886;8.728;2023-01-26T01:05:31;1.40;99.90
2867;DHT22;1441;48.886;8.728;2023-01-26T01:07:57;1.30;99.90
2867;DHT22;1441;48.886;8.728;2023-01-26T01:10:23;1.30;99.90
2867;DHT22;1441;48.886;8.728;2023-01-26T01:12:49;1.40;99.90
2867;DHT22;1441;48.886;8.728;2023-01-26T01:15:14;1.30;99.90
2867;DHT22;1441;48.886;8.728;2023-01-26T01:17:40;1.20;99.90
2867;DHT22;1441;48.886;8.728;2023-01-26T01:20:08;1.20;99.90
2867;DHT22;1441;48.886;8.728;2023-01-26T01:22:35;1.20;99.90
2867;DHT22;1441;48.886;8.728;2023-01-26T01:25:01;1.10;99.90
2867;DHT22;1441;48.886;8.728;2023-01-26T01:27:27;1.20;99.90
2867;DHT22;1441;48.886;8.728;2023-01-26T01:29:53;1.20;99.90
2867;DHT22;1441;48.886;8.728;2023-01-26T01:32:19;1.30;99.90
2867;DHT22;1441;48.886;8.728;2023-01-26T01:34:48;1.20;99.90
2867;DHT22;1441;48.886;8.728;2023-01-26T01:37:15;1.10;99.90
2867;DHT22;1441;48.886;8.728;2023-01-26T01:39:41;1.20;99.90
2867;DHT22;1441;48.886;8.728;2023-01-26T01:42:07;1.30;99.90
2867;DHT22;1441;48.886;8.728;2023-01-26T01:44:37;1.50;99.90
2867;DHT22;1441;48.886;8.728;2023-01-26T01:47:12;1.50;99.90
2867;DHT22;1441;48.886;8.728;2023-01-26T01:49:46;1.60;99.90
2867;DHT22;1441;48.886;8.728;2023-01-26T01:52:17;1.60;99.90
2867;DHT22;1441;48.886;8.728;2023-01-26T01:54:49;1.60;99.90
2867;DHT22;1441;48.886;8.728;2023-01-26T01:57:22;1.50;99.90
2867;DHT22;1441;48.886;8.728;2023-01-26T01:59:56;1.40;99.90
2867;DHT22;1441;48.886;8.728;2023-01-26T02:02:22;1.40;99.90
2867;DHT22;1441;48.886;8.728;2023-01-26T02:04:48;1.40;99.90
2867;DHT22;1441;48.886;8.728;2023-01-26T02:07:14;1.50;99.90
2867;DHT22;1441;48.886;8.728;2023-01-26T02:09:40;1.50;99.90
2867;DHT22;1441;48.886;8.728;2023-01-26T02:12:28;1.30;99.90
2867;DHT22;1441;48.886;8.728;2023-01-26T02:14:56;1.30;99.90
2867;DHT22;1441;48.886;8.728;2023-01-26T02:17:22;1.30;99.90
2867;DHT22;1441;48.886;8.728;2023-01-26T02:20:05;1.40;99.90
2867;DHT22;1441;48.886;8.728;2023-01-26T02:22:44;1.40;99.90
2867;DHT22;1441;48.886;8.728;2023-01-26T02:25:21;1.40;99.90
2867;DHT22;1441;48.886;8.728;2023-01-26T02:27:50;1.30;99.90
2867;DHT22;1441;48.886;8.728;2023-01-26T02:30:16;1.30;99.90
2867;DHT22;1441;48.886;8.728;2023-01-26T02:32:42;1.20;99.90
2867;DHT22;1441;48.886;8.728;2023-01-26T02:35:08;1.10;99.90
2867;DHT22;1441;48.886;8.728;2023-01-26T02:37:33;1.10;99.90
2867;DHT22;1441;48.886;8.728;2023-01-26T02:42:46;1.30;99.90
2867;DHT22;1441;48.886;8.728;2023-01-26T02:45:13;1.30;99.90
2867;DHT22;1441;48.886;8.728;2023-01-26T02:47:40;1.10;99.90
2867;DHT22;1441;48.886;8.728;2023-01-26T02:50:08;1.00;99.90
2867;DHT22;1441;48.886;8.728;2023-01-26T02:52:34;0.90;99.90
2867;DHT22;1441;48.886;8.728;2023-01-26T02:55:00;0.90;99.90
2867;DHT22;1441;48.886;8.728;2023-01-26T02:57:45;0.90;99.90
2867;DHT22;1441;48.886;8.728;2023-01-26T03:00:16;1.10;99.90
2867;DHT22;1441;48.886;8.728;2023-01-26T03:02:42;1.20;99.90
2867;DHT22;1441;48.886;8.728;2023-01-26T03:05:08;1.10;99.90
2867;DHT22;1441;48.886;8.728;2023-01-26T03:07:34;1.20;99.90
2867;DHT22;1441;48.886;8.728;2023-01-26T03:09:59;1.10;99.90
2867;DHT22;1441;48.886;8.728;2023-01-26T03:12:25;1.00;99.90
2867;DHT22;1441;48.886;8.728;2023-01-26T03:14:51;1.10;99.90
2867;DHT22;1441;48.886;8.728;2023-01-26T03:17:36;1.10;99.90
2867;DHT22;1441;48.886;8.728;2023-01-26T03:20:01;1.00;99.90
2867;DHT22;1441;48.886;8.728;2023-01-26T03:22:46;1.00;99.90
2867;DHT22;1441;48.886;8.728;2023-01-26T03:25:30;1.00;99.90
2867;DHT22;1441;48.886;8.728;2023-01-26T03:28:14;1.00;99.90
2867;DHT22;1441;48.886;8.728;2023-01-26T03:30:40;1.10;99.90
2867;DHT22;1441;48.886;8.728;2023-01-26T03:33:06;1.00;99.90
2867;DHT22;1441;48.886;8.728;2023-01-26T03:35:31;0.80;99.90
2867;DHT22;1441;48.886;8.728;2023-01-26T03:37:57;0.90;99.90
2867;DHT22;1441;48.886;8.728;2023-01-26T03:40:23;0.80;99.90
2867;DHT22;1441;48.886;8.728;2023-01-26T03:43:10;0.80;99.90
2867;DHT22;1441;48.886;8.728;2023-01-26T03:45:54;0.80;99.90
2867;DHT22;1441;48.886;8.728;2023-01-26T03:48:38;0.80;99.90
2867;DHT22;1441;48.886;8.728;2023-01-26T03:51:22;0.70;99.90
2867;DHT22;1441;48.886;8.728;2023-01-26T03:54:06;0.80;99.90
2867;DHT22;1441;48.886;8.728;2023-01-26T03:56:50;0.80;99.90
2867;DHT22;1441;48.886;8.728;2023-01-26T03:59:16;0.80;99.90
2867;DHT22;1441;48.886;8.728;2023-01-26T04:01:44;0.80;99.90
2867;DHT22;1441;48.886;8.728;2023-01-26T04:04:28;0.80;99.90
2867;DHT22;1441;48.886;8.728;2023-01-26T04:07:12;0.90;99.90
2867;DHT22;1441;48.886;8.728;2023-01-26T04:09:56;0.80;99.90
2867;DHT22;1441;48.886;8.728;2023-01-26T04:12:22;0.80;99.90
2867;DHT22;1441;48.886;8.728;2023-01-26T04:14:47;0.80;99.90
2867;DHT22;1441;48.886;8.728;2023-01-26T04:17:31;0.90;99.90
2867;DHT22;1441;48.886;8.728;2023-01-26T04:20:15;0.80;99.90
2867;DHT22;1441;48.886;8.728;2023-01-26T04:22:59;0.80;99.90
2867;DHT22;1441;48.886;8.728;2023-01-26T04:25:25;0.80;99.90
2867;DHT22;1441;48.886;8.728;2023-01-26T04:27:51;0.80;99.90
2867;DHT22;1441;48.886;8.728;2023-01-26T04:30:17;0.70;99.90
2867;DHT22;1441;48.886;8.728;2023-01-26T04:32:43;0.80;99.90
2867;DHT22;1441;48.886;8.728;2023-01-26T04:35:10;0.80;99.90
2867;DHT22;1441;48.886;8.728;2023-01-26T04:37:37;0.80;99.90
2867;DHT22;1441;48.886;8.728;2023-01-26T04:40:03;0.80;99.90
2867;DHT22;1441;48.886;8.728;2023-01-26T04:42:29;0.70;99.90
2867;DHT22;1441;48.886;8.728;2023-01-26T04:44:54;0.80;99.90
2867;DHT22;1441;48.886;8.728;2023-01-26T04:47:20;0.80;99.90
2867;DHT22;1441;48.886;8.728;2023-01-26T04:49:46;0.90;99.90
2867;DHT22;1441;48.886;8.728;2023-01-26T04:52:12;0.80;99.90
2867;DHT22;1441;48.886;8.728;2023-01-26T04:54:39;0.90;99.90
2867;DHT22;1441;48.886;8.728;2023-01-26T04:57:04;1.00;99.90
2867;DHT22;1441;48.886;8.728;2023-01-26T04:59:30;0.80;99.90
2867;DHT22;1441;48.886;8.728;2023-01-26T05:01:56;0.70;99.90
2867;DHT22;1441;48.886;8.728;2023-01-26T05:04:21;0.70;99.90
2867;DHT22;1441;48.886;8.728;2023-01-26T05:06:47;0.90;99.90
2867;DHT22;1441;48.886;8.728;2023-01-26T05:09:12;1.00;99.90
2867;DHT22;1441;48.886;8.728;2023-01-26T05:11:38;1.00;99.90
2867;DHT22;1441;48.886;8.728;2023-01-26T05:14:04;1.00;99.90
2867;DHT22;1441;48.886;8.728;2023-01-26T05:16:29;1.10;99.90
2867;DHT22;1441;48.886;8.728;2023-01-26T05:18:55;1.10;99.90
2867;DHT22;1441;48.886;8.728;2023-01-26T05:21:20;1.00;99.90
2867;DHT22;1441;48.886;8.728;2023-01-26T05:23:49;1.00;99.90
2867;DHT22;1441;48.886;8.728;2023-01-26T05:26:15;0.80;99.90
2867;DHT22;1441;48.886;8.728;2023-01-26T05:28:40;0.60;99.90
2867;DHT22;1441;48.886;8.728;2023-01-26T05:31:06;0.60;99.90
2867;DHT22;1441;48.886;8.728;2023-01-26T05:33:31;0.50;99.90
2867;DHT22;1441;48.886;8.728;2023-01-26T05:35:57;0.60;99.90
2867;DHT22;1441;48.886;8.728;2023-01-26T05:38:23;0.80;99.90
2867;DHT22;1441;48.886;8.728;2023-01-26T05:40:50;0.80;99.90
2867;DHT22;1441;48.886;8.728;2023-01-26T05:43:16;1.00;99.90
2867;DHT22;1441;48.886;8.728;2023-01-26T05:45:41;1.10;99.90
2867;DHT22;1441;48.886;8.728;2023-01-26T05:48:07;1.10;99.90
2867;DHT22;1441;48.886;8.728;2023-01-26T05:50:32;0.90;99.90
2867;DHT22;1441;48.886;8.728;2023-01-26T05:52:58;0.80;99.90
2867;DHT22;1441;48.886;8.728;2023-01-26T05:55:25;0.90;99.90
2867;DHT22;1441;48.886;8.728;2023-01-26T05:57:51;0.90;99.90
2867;DHT22;1441;48.886;8.728;2023-01-26T06:00:17;0.80;99.90
2867;DHT22;1441;48.886;8.728;2023-01-26T06:02:42;0.80;99.90
2867;DHT22;1441;48.886;8.728;2023-01-26T06:05:09;1.00;99.90
2867;DHT22;1441;48.886;8.728;2023-01-26T06:07:34;0.90;99.90
2867;DHT22;1441;48.886;8.728;2023-01-26T06:10:00;0.90;99.90
2867;DHT22;1441;48.886;8.728;2023-01-26T06:12:26;0.80;99.90
2867;DHT22;1441;48.886;8.728;2023-01-26T06:14:56;0.90;99.90
2867;DHT22;1441;48.886;8.728;2023-01-26T06:17:21;1.00;99.90
2867;DHT22;1441;48.886;8.728;2023-01-26T06:19:47;1.10;99.90
2867;DHT22;1441;48.886;8.728;2023-01-26T06:22:13;1.00;99.90
2867;DHT22;1441;48.886;8.728;2023-01-26T06:24:39;0.80;99.90
2867;DHT22;1441;48.886;8.728;2023-01-26T06:27:07;0.80;99.90
2867;DHT22;1441;48.886;8.728;2023-01-26T06:29:36;0.70;99.90
2867;DHT22;1441;48.886;8.728;2023-01-26T06:32:02;0.60;99.90
2867;DHT22;1441;48.886;8.728;2023-01-26T06:34:27;0.70;99.90
2867;DHT22;1441;48.886;8.728;2023-01-26T06:36:53;0.70;99.90
2867;DHT22;1441;48.886;8.728;2023-01-26T06:39:19;0.70;99.90
2867;DHT22;1441;48.886;8.728;2023-01-26T06:41:44;0.90;99.90
2867;DHT22;1441;48.886;8.728;2023-01-26T06:44:10;0.90;99.90
2867;DHT22;1441;48.886;8.728;2023-01-26T06:46:36;1.10;99.90
2867;DHT22;1441;48.886;8.728;2023-01-26T06:49:02;1.10;99.90
2867;DHT22;1441;48.886;8.728;2023-01-26T06:53:55;0.80;99.90
2867;DHT22;1441;48.886;8.728;2023-01-26T06:56:21;0.70;99.90
2867;DHT22;1441;48.886;8.728;2023-01-26T06:58:47;0.90;99.90
2867;DHT22;1441;48.886;8.728;2023-01-26T07:01:18;1.10;99.90
2867;DHT22;1441;48.886;8.728;2023-01-26T07:03:44;1.20;99.90
2867;DHT22;1441;48.886;8.728;2023-01-26T07:06:11;1.30;99.90
2867;DHT22;1441;48.886;8.728;2023-01-26T07:08:37;1.10;99.90
2867;DHT22;1441;48.886;8.728;2023-01-26T07:11:03;1.00;99.90
2867;DHT22;1441;48.886;8.728;2023-01-26T07:13:29;1.10;99.90
2867;DHT22;1441;48.886;8.728;2023-01-26T07:16:02;1.00;99.90
2867;DHT22;1441;48.886;8.728;2023-01-26T07:18:28;1.10;99.90
2867;DHT22;1441;48.886;8.728;2023-01-26T07:20:53;1.10;99.90
2867;DHT22;1441;48.886;8.728;2023-01-26T07:23:19;0.90;99.90
2867;DHT22;1441;48.886;8.728;2023-01-26T07:25:45;0.70;99.90
2867;DHT22;1441;48.886;8.728;2023-01-26T07:28:10;0.70;99.90
2867;DHT22;1441;48.886;8.728;2023-01-26T07:30:36;0.60;99.90
2867;DHT22;1441;48.886;8.728;2023-01-26T07:33:02;0.60;99.90
2867;DHT22;1441;48.886;8.728;2023-01-26T07:35:27;0.60;99.90
2867;DHT22;1441;48.886;8.728;2023-01-26T07:37:55;0.60;99.90
2867;DHT22;1441;48.886;8.728;2023-01-26T07:40:23;0.60;99.90
2867;DHT22;1441;48.886;8.728;2023-01-26T07:42:48;0.60;99.90
2867;DHT22;1441;48.886;8.728;2023-01-26T07:45:14;0.60;99.90
2867;DHT22;1441;48.886;8.728;2023-01-26T07:47:42;0.70;99.90
2867;DHT22;1441;48.886;8.728;2023-01-26T07:50:09;0.90;99.90
2867;DHT22;1441;48.886;8.728;2023-01-26T07:52:36;0.80;99.90
2867;DHT22;1441;48.886;8.728;2023-01-26T07:55:02;0.70;99.90
2867;DHT22;1441;48.886;8.728;2023-01-26T07:57:28;0.60;99.90
2867;DHT22;1441;48.886;8.728;2023-01-26T07:59:54;0.60;99.90
2867;DHT22;1441;48.886;8.728;2023-01-26T08:02:19;0.60;99.90
2867;DHT22;1441;48.886;8.728;2023-01-26T08:04:45;0.60;99.90
2867;DHT22;1441;48.886;8.728;2023-01-26T08:07:11;0.60;99.90
2867;DHT22;1441;48.886;8.728;2023-01-26T08:09:36;0.60;99.90
2867;DHT22;1441;48.886;8.728;2023-01-26T08:12:02;0.60;99.90
2867;DHT22;1441;48.886;8.728;2023-01-26T08:14:28;0.60;99.90
2867;DHT22;1441;48.886;8.728;2023-01-26T08:16:53;0.60;99.90
2867;DHT22;1441;48.886;8.728;2023-01-26T08:19:19;0.60;99.90
2867;DHT22;1441;48.886;8.728;2023-01-26T08:21:44;0.60;99.90
2867;DHT22;1441;48.886;8.728;2023-01-26T08:24:11;0.60;99.90
2867;DHT22;1441;48.886;8.728;2023-01-26T08:26:37;0.60;99.90
2867;DHT22;1441;48.886;8.728;2023-01-26T08:29:02;0.80;99.90
2867;DHT22;1441;48.886;8.728;2023-01-26T08:31:28;1.10;99.90
2867;DHT22;1441;48.886;8.728;2023-01-26T08:33:55;1.00;99.90
2867;DHT22;1441;48.886;8.728;2023-01-26T08:36:21;1.00;99.90
2867;DHT22;1441;48.886;8.728;2023-01-26T08:38:47;0.90;99.90
2867;DHT22;1441;48.886;8.728;2023-01-26T08:41:13;0.70;99.90
2867;DHT22;1441;48.886;8.728;2023-01-26T08:43:38;0.80;99.90
2867;DHT22;1441;48.886;8.728;2023-01-26T08:46:05;1.00;99.90
2867;DHT22;1441;48.886;8.728;2023-01-26T08:48:31;0.90;99.90
2867;DHT22;1441;48.886;8.728;2023-01-26T08:50:58;0.80;99.90
2867;DHT22;1441;48.886;8.728;2023-01-26T08:53:24;0.80;99.90
2867;DHT22;1441;48.886;8.728;2023-01-26T08:55:51;0.80;99.90
2867;DHT22;1441;48.886;8.728;2023-01-26T08:58:17;0.80;99.90
2867;DHT22;1441;48.886;8.728;2023-01-26T09:00:43;0.70;99.90
2867;DHT22;1441;48.886;8.728;2023-01-26T09:03:09;0.70;99.90
2867;DHT22;1441;48.886;8.728;2023-01-26T09:05:36;0.70;99.90
2867;DHT22;1441;48.886;8.728;2023-01-26T09:08:07;0.70;99.90
2867;DHT22;1441;48.886;8.728;2023-01-26T09:10:33;0.70;99.90
2867;DHT22;1441;48.886;8.728;2023-01-26T09:12:59;0.70;99.90
2867;DHT22;1441;48.886;8.728;2023-01-26T09:15:25;0.70;99.90
2867;DHT22;1441;48.886;8.728;2023-01-26T09:17:51;0.70;99.90
2867;DHT22;1441;48.886;8.728;2023-01-26T09:20:17;0.70;99.90
2867;DHT22;1441;48.886;8.728;2023-01-26T09:22:43;0.70;99.90
2867;DHT22;1441;48.886;8.728;2023-01-26T09:25:09;0.70;99.90
2867;DHT22;1441;48.886;8.728;2023-01-26T09:27:35;0.70;99.90
2867;DHT22;1441;48.886;8.728;2023-01-26T09:30:01;0.70;99.90
2867;DHT22;1441;48.886;8.728;2023-01-26T09:32:27;0.70;99.90
2867;DHT22;1441;48.886;8.728;2023-01-26T09:34:53;0.70;99.90
2867;DHT22;1441;48.886;8.728;2023-01-26T09:37:18;0.60;99.90
2867;DHT22;1441;48.886;8.728;2023-01-26T09:39:44;0.60;99.90
2867;DHT22;1441;48.886;8.728;2023-01-26T09:50:35;0.70;99.90
2867;DHT22;1441;48.886;8.728;2023-01-26T09:53:20;0.80;99.90
2867;DHT22;1441;48.886;8.728;2023-01-26T09:55:49;0.70;99.90
2867;DHT22;1441;48.886;8.728;2023-01-26T09:58:34;0.80;99.90
2867;DHT22;1441;48.886;8.728;2023-01-26T10:01:02;0.80;99.90
2867;DHT22;1441;48.886;8.728;2023-01-26T10:06:26;0.80;99.90
2867;DHT22;1441;48.886;8.728;2023-01-26T10:08:54;0.80;99.90
2867;DHT22;1441;48.886;8.728;2023-01-26T10:11:39;0.70;99.90
2867;DHT22;1441;48.886;8.728;2023-01-26T10:14:19;0.70;99.90
2867;DHT22;1441;48.886;8.728;2023-01-26T10:16:48;0.70;99.90
2867;DHT22;1441;48.886;8.728;2023-01-26T10:19:32;0.70;99.90
2867;DHT22;1441;48.886;8.728;2023-01-26T10:22:05;0.80;99.90
2867;DHT22;1441;48.886;8.728;2023-01-26T10:24:32;0.80;99.90
2867;DHT22;1441;48.886;8.728;2023-01-26T10:26:59;0.80;99.90
2867;DHT22;1441;48.886;8.728;2023-01-26T10:29:24;0.70;99.90
2867;DHT22;1441;48.886;8.728;2023-01-26T10:31:50;0.70;99.90
2867;DHT22;1441;48.886;8.728;2023-01-26T10:34:22;0.80;99.90
2867;DHT22;1441;48.886;8.728;2023-01-26T10:36:48;0.80;99.90
2867;DHT22;1441;48.886;8.728;2023-01-26T10:39:16;0.80;99.90
2867;DHT22;1441;48.886;8.728;2023-01-26T10:42:00;0.80;99.90
2867;DHT22;1441;48.886;8.728;2023-01-26T10:44:34;0.80;99.90
2867;DHT22;1441;48.886;8.728;2023-01-26T10:47:13;0.70;99.90
2867;DHT22;1441;48.886;8.728;2023-01-26T10:49:40;0.80;99.90
2867;DHT22;1441;48.886;8.728;2023-01-26T10:52:17;0.80;99.90
2867;DHT22;1441;48.886;8.728;2023-01-26T10:55:09;0.80;99.90
2867;DHT22;1441;48.886;8.728;2023-01-26T10:57:37;0.80;99.90
2867;DHT22;1441;48.886;8.728;2023-01-26T11:00:05;0.80;99.90
2867;DHT22;1441;48.886;8.728;2023-01-26T11:02:34;0.90;99.90
2867;DHT22;1441;48.886;8.728;2023-01-26T11:05:21;0.80;99.90
2867;DHT22;1441;48.886;8.728;2023-01-26T11:07:51;0.80;99.90
2867;DHT22;1441;48.886;8.728;2023-01-26T11:10:24;0.80;99.90
2867;DHT22;1441;48.886;8.728;2023-01-26T11:13:04;0.80;99.90
2867;DHT22;1441;48.886;8.728;2023-01-26T11:15:35;0.80;99.90
2867;DHT22;1441;48.886;8.728;2023-01-26T11:18:10;0.80;99.90
2867;DHT22;1441;48.886;8.728;2023-01-26T11:31:58;0.90;99.90
2867;DHT22;1441;48.886;8.728;2023-01-26T11:34:44;0.80;99.90
2867;DHT22;1441;48.886;8.728;2023-01-26T11:40:18;0.90;99.90
2867;DHT22;1441;48.886;8.728;2023-01-26T11:51:18;0.80;99.90
2867;DHT22;1441;48.886;8.728;2023-01-26T11:55:04;0.80;99.90
2867;DHT22;1441;48.886;8.728;2023-01-26T11:59:38;0.80;99.90
2867;DHT22;1441;48.886;8.728;2023-01-26T12:02:26;0.80;99.90
2867;DHT22;1441;48.886;8.728;2023-01-26T12:04:53;0.80;99.90
2867;DHT22;1441;48.886;8.728;2023-01-26T12:07:40;0.80;99.90
2867;DHT22;1441;48.886;8.728;2023-01-26T12:10:16;0.80;99.90
2867;DHT22;1441;48.886;8.728;2023-01-26T12:12:47;0.80;99.90
2867;DHT22;1441;48.886;8.728;2023-01-26T12:15:18;0.80;99.90
2867;DHT22;1441;48.886;8.728;2023-01-26T12:20:45;0.90;99.90
2867;DHT22;1441;48.886;8.728;2023-01-26T12:26:00;0.90;99.90
2867;DHT22;1441;48.886;8.728;2023-01-26T12:28:34;0.90;99.90
2867;DHT22;1441;48.886;8.728;2023-01-26T12:33:37;0.80;99.90
2867;DHT22;1441;48.886;8.728;2023-01-26T12:44:06;0.80;99.90
2867;DHT22;1441;48.886;8.728;2023-01-26T12:46:41;0.80;99.90
2867;DHT22;1441;48.886;8.728;2023-01-26T12:51:49;1.00;99.90
2867;DHT22;1441;48.886;8.728;2023-01-26T12:54:39;1.10;99.90
2867;DHT22;1441;48.886;8.728;2023-01-26T12:57:14;1.00;99.90
2867;DHT22;1441;48.886;8.728;2023-01-26T12:59:42;1.00;99.90
2867;DHT22;1441;48.886;8.728;2023-01-26T13:02:10;0.90;99.90
2867;DHT22;1441;48.886;8.728;2023-01-26T13:04:43;0.90;99.90
2867;DHT22;1441;48.886;8.728;2023-01-26T13:07:36;0.90;99.90
2867;DHT22;1441;48.886;8.728;2023-01-26T13:12:59;1.10;99.90
2867;DHT22;1441;48.886;8.728;2023-01-26T13:15:30;1.00;99.90
2867;DHT22;1441;48.886;8.728;2023-01-26T13:17:58;0.90;99.90
2867;DHT22;1441;48.886;8.728;2023-01-26T13:23:38;0.80;99.90
2867;DHT22;1441;48.886;8.728;2023-01-26T13:26:20;0.70;99.90
2867;DHT22;1441;48.886;8.728;2023-01-26T13:28:48;0.70;99.90
2867;DHT22;1441;48.886;8.728;2023-01-26T13:31:30;0.80;99.90
2867;DHT22;1441;48.886;8.728;2023-01-26T13:33:59;1.00;99.90
2867;DHT22;1441;48.886;8.728;2023-01-26T13:36:29;0.90;99.90
2867;DHT22;1441;48.886;8.728;2023-01-26T13:39:02;0.80;99.90
2867;DHT22;1441;48.886;8.728;2023-01-26T13:41:28;0.90;99.90
2867;DHT22;1441;48.886;8.728;2023-01-26T13:44:11;0.80;99.90
2867;DHT22;1441;48.886;8.728;2023-01-26T13:46:42;0.60;99.90
2867;DHT22;1441;48.886;8.728;2023-01-26T13:49:38;0.70;99.90
2867;DHT22;1441;48.886;8.728;2023-01-26T13:54:40;0.60;99.90
2867;DHT22;1441;48.886;8.728;2023-01-26T13:57:09;0.60;99.90
2867;DHT22;1441;48.886;8.728;2023-01-26T13:59:47;0.60;99.90
2867;DHT22;1441;48.886;8.728;2023-01-26T14:02:22;0.60;99.90
2867;DHT22;1441;48.886;8.728;2023-01-26T14:04:53;0.70;99.90
2867;DHT22;1441;48.886;8.728;2023-01-26T14:07:23;0.70;99.90
2867;DHT22;1441;48.886;8.728;2023-01-26T14:09:50;0.70;99.90
2867;DHT22;1441;48.886;8.728;2023-01-26T14:12:20;0.60;99.90
2867;DHT22;1441;48.886;8.728;2023-01-26T14:14:56;0.60;99.90
2867;DHT22;1441;48.886;8.728;2023-01-26T14:17:34;0.60;99.90
2867;DHT22;1441;48.886;8.728;2023-01-26T14:20:24;0.60;99.90
2867;DHT22;1441;48.886;8.728;2023-01-26T14:25:33;0.70;99.90
2867;DHT22;1441;48.886;8.728;2023-01-26T14:27:58;0.80;99.90
2867;DHT22;1441;48.886;8.728;2023-01-26T14:30:29;0.70;99.90
2867;DHT22;1441;48.886;8.728;2023-01-26T14:33:05;0.70;99.90
2867;DHT22;1441;48.886;8.728;2023-01-26T14:35:32;0.70;99.90
2867;DHT22;1441;48.886;8.728;2023-01-26T14:40:45;0.60;99.90
2867;DHT22;1441;48.886;8.728;2023-01-26T14:43:12;0.60;99.90
2867;DHT22;1441;48.886;8.728;2023-01-26T14:45:56;0.60;99.90
2867;DHT22;1441;48.886;8.728;2023-01-26T14:48:33;0.70;99.90
2867;DHT22;1441;48.886;8.728;2023-01-26T14:51:03;0.70;99.90
2867;DHT22;1441;48.886;8.728;2023-01-26T14:53:31;0.60;99.90
2867;DHT22;1441;48.886;8.728;2023-01-26T14:55:56;0.60;99.90
2867;DHT22;1441;48.886;8.728;2023-01-26T14:58:31;0.60;99.90
2867;DHT22;1441;48.886;8.728;2023-01-26T15:00:59;0.50;99.90
2867;DHT22;1441;48.886;8.728;2023-01-26T15:03:28;0.50;99.90
2867;DHT22;1441;48.886;8.728;2023-01-26T15:08:38;0.50;99.90
2867;DHT22;1441;48.886;8.728;2023-01-26T15:11:04;0.50;99.90
2867;DHT22;1441;48.886;8.728;2023-01-26T15:13:54;0.50;99.90
2867;DHT22;1441;48.886;8.728;2023-01-26T15:16:24;0.50;99.90
2867;DHT22;1441;48.886;8.728;2023-01-26T15:19:02;0.50;99.90
2867;DHT22;1441;48.886;8.728;2023-01-26T15:21:34;0.40;99.90
2867;DHT22;1441;48.886;8.728;2023-01-26T15:24:04;0.40;99.90
2867;DHT22;1441;48.886;8.728;2023-01-26T15:26:34;0.40;99.90
2867;DHT22;1441;48.886;8.728;2023-01-26T15:29:03;0.40;99.90
2867;DHT22;1441;48.886;8.728;2023-01-26T15:31:37;0.40;99.90
2867;DHT22;1441;48.886;8.728;2023-01-26T15:34:04;0.40;99.90
2867;DHT22;1441;48.886;8.728;2023-01-26T15:39:09;0.40;99.90
2867;DHT22;1441;48.886;8.728;2023-01-26T15:41:36;0.40;99.90
2867;DHT22;1441;48.886;8.728;2023-01-26T15:44:01;0.50;99.90
2867;DHT22;1441;48.886;8.728;2023-01-26T15:46:27;0.40;99.90
2867;DHT22;1441;48.886;8.728;2023-01-26T15:48:53;0.40;99.90
2867;DHT22;1441;48.886;8.728;2023-01-26T15:51:19;0.40;99.90
2867;DHT22;1441;48.886;8.728;2023-01-26T15:53:44;0.30;99.90
2867;DHT22;1441;48.886;8.728;2023-01-26T15:56:14;0.30;99.90
2867;DHT22;1441;48.886;8.728;2023-01-26T15:58:42;0.30;99.90
2867;DHT22;1441;48.886;8.728;2023-01-26T16:01:16;0.20;99.90
2867;DHT22;1441;48.886;8.728;2023-01-26T16:03:42;0.20;99.90
2867;DHT22;1441;48.886;8.728;2023-01-26T16:06:27;0.20;99.90
2867;DHT22;1441;48.886;8.728;2023-01-26T16:08:54;0.20;99.90
2867;DHT22;1441;48.886;8.728;2023-01-26T16:11:21;0.20;99.90
2867;DHT22;1441;48.886;8.728;2023-01-26T16:13:48;0.20;99.90
2867;DHT22;1441;48.886;8.728;2023-01-26T16:16:14;0.20;99.90
2867;DHT22;1441;48.886;8.728;2023-01-26T16:18:41;0.20;99.90
2867;DHT22;1441;48.886;8.728;2023-01-26T16:21:23;0.20;99.90
2867;DHT22;1441;48.886;8.728;2023-01-26T16:23:49;0.20;99.90
2867;DHT22;1441;48.886;8.728;2023-01-26T16:26:17;0.20;99.90
2867;DHT22;1441;48.886;8.728;2023-01-26T16:28:43;0.10;99.90
2867;DHT22;1441;48.886;8.728;2023-01-26T16:31:24;0.10;99.90
2867;DHT22;1441;48.886;8.728;2023-01-26T16:33:51;0.10;99.90
2867;DHT22;1441;48.886;8.728;2023-01-26T16:36:18;0.10;99.90
2867;DHT22;1441;48.886;8.728;2023-01-26T16:38:44;0.10;99.90
2867;DHT22;1441;48.886;8.728;2023-01-26T16:41:18;0.00;99.90
2867;DHT22;1441;48.886;8.728;2023-01-26T16:43:46;0.00;99.90
2867;DHT22;1441;48.886;8.728;2023-01-26T16:46:11;0.00;99.90
2867;DHT22;1441;48.886;8.728;2023-01-26T16:48:38;0.00;99.90
2867;DHT22;1441;48.886;8.728;2023-01-26T16:51:31;0.10;99.90
2867;DHT22;1441;48.886;8.728;2023-01-26T16:54:01;0.00;99.90
2867;DHT22;1441;48.886;8.728;2023-01-26T16:56:26;0.10;99.90
2867;DHT22;1441;48.886;8.728;2023-01-26T16:58:53;0.00;99.90
2867;DHT22;1441;48.886;8.728;2023-01-26T17:01:23;0.10;99.90
2867;DHT22;1441;48.886;8.728;2023-01-26T17:03:49;0.00;99.90
2867;DHT22;1441;48.886;8.728;2023-01-26T17:06:16;0.10;99.90
2867;DHT22;1441;48.886;8.728;2023-01-26T17:08:42;0.00;99.90
2867;DHT22;1441;48.886;8.728;2023-01-26T17:11:19;0.00;99.90
2867;DHT22;1441;48.886;8.728;2023-01-26T17:13:46;0.00;99.90
2867;DHT22;1441;48.886;8.728;2023-01-26T17:16:15;0.00;99.90
2867;DHT22;1441;48.886;8.728;2023-01-26T17:18:41;0.00;99.90
2867;DHT22;1441;48.886;8.728;2023-01-26T17:21:07;0.00;99.90
2867;DHT22;1441;48.886;8.728;2023-01-26T17:23:32;-0.10;99.90
2867;DHT22;1441;48.886;8.728;2023-01-26T17:25:59;0.00;99.90
2867;DHT22;1441;48.886;8.728;2023-01-26T17:28:26;-0.10;99.90
2867;DHT22;1441;48.886;8.728;2023-01-26T17:30:52;-0.10;99.90
2867;DHT22;1441;48.886;8.728;2023-01-26T17:33:17;0.00;99.90
2867;DHT22;1441;48.886;8.728;2023-01-26T17:35:43;-0.10;99.90
2867;DHT22;1441;48.886;8.728;2023-01-26T17:38:08;-0.10;99.90
2867;DHT22;1441;48.886;8.728;2023-01-26T17:40:34;-0.10;99.90
2867;DHT22;1441;48.886;8.728;2023-01-26T17:43:01;0.00;99.90
2867;DHT22;1441;48.886;8.728;2023-01-26T17:45:27;0.00;99.90
2867;DHT22;1441;48.886;8.728;2023-01-26T17:47:52;-0.10;99.90
2867;DHT22;1441;48.886;8.728;2023-01-26T17:50:18;-0.10;99.90
2867;DHT22;1441;48.886;8.728;2023-01-26T17:52:44;-0.10;99.90